Terminal Aerodrome Forecast
Issued by NWS Wilmington, OH

Current Version | Previous Version | Text Only | Print | Product List | Glossary Off
Versions: 1 2 3 4 5 6 7 8 9 10 11 12 13 14 15 16 17 18 19 20 21

000
FTUS41 KILN 271000 AAA
TAFDAY
TAF AMD
KDAY 271025Z 2710/2806 22008KT 6SM BR SCT015 SCT100
      TEMPO 2710/2712 5SM BR
     FM271300 23010KT P6SM SCT030 BKN100
     FM271600 26012G22KT P6SM -SHRA VCTS BKN035CB
     FM272100 28014G23KT P6SM BKN040
     FM280000 27010KT P6SM SCT050 BKN250=

USA.gov is the U.S. government's official web portal to all federal, state and local government web resources and services.